sensor_id;sensor_type;location;lat;lon;timestamp;P1;durP1;ratioP1;P2;durP2;ratioP2
57409;SDS011;46044;44.738;20.394;2022-11-20T00:00:10;36.33;;;14.27;;
57409;SDS011;46044;44.738;20.394;2022-11-20T00:02:40;33.97;;;14.73;;
57409;SDS011;46044;44.738;20.394;2022-11-20T00:05:16;33.60;;;15.05;;
57409;SDS011;46044;44.738;20.394;2022-11-20T00:07:51;35.88;;;15.20;;
57409;SDS011;46044;44.738;20.394;2022-11-20T00:10:25;36.30;;;14.38;;
57409;SDS011;46044;44.738;20.394;2022-11-20T00:12:59;45.27;;;15.07;;
57409;SDS011;46044;44.738;20.394;2022-11-20T00:29:02;41.70;;;14.20;;
57409;SDS011;46044;44.738;20.394;2022-11-20T00:31:35;56.72;;;15.52;;
57409;SDS011;46044;44.738;20.394;2022-11-20T00:34:09;43.22;;;14.65;;
57409;SDS011;46044;44.738;20.394;2022-11-20T00:36:42;42.63;;;14.43;;
57409;SDS011;46044;44.738;20.394;2022-11-20T00:42:46;45.60;;;15.73;;
57409;SDS011;46044;44.738;20.394;2022-11-20T00:45:20;32.67;;;14.57;;
57409;SDS011;46044;44.738;20.394;2022-11-20T00:50:56;41.95;;;16.25;;
57409;SDS011;46044;44.738;20.394;2022-11-20T00:56:34;35.00;;;16.55;;
57409;SDS011;46044;44.738;20.394;2022-11-20T00:59:10;41.67;;;18.67;;
57409;SDS011;46044;44.738;20.394;2022-11-20T01:01:44;50.50;;;19.73;;
57409;SDS011;46044;44.738;20.394;2022-11-20T01:04:19;45.57;;;19.07;;
57409;SDS011;46044;44.738;20.394;2022-11-20T01:06:52;43.00;;;18.70;;
57409;SDS011;46044;44.738;20.394;2022-11-20T01:09:25;35.40;;;14.90;;
57409;SDS011;46044;44.738;20.394;2022-11-20T01:11:58;31.83;;;13.77;;
57409;SDS011;46044;44.738;20.394;2022-11-20T01:17:04;35.90;;;12.77;;
57409;SDS011;46044;44.738;20.394;2022-11-20T01:19:41;34.20;;;13.27;;
57409;SDS011;46044;44.738;20.394;2022-11-20T01:22:11;40.30;;;16.98;;
57409;SDS011;46044;44.738;20.394;2022-11-20T01:24:41;51.63;;;16.83;;
57409;SDS011;46044;44.738;20.394;2022-11-20T01:27:14;45.00;;;17.70;;
57409;SDS011;46044;44.738;20.394;2022-11-20T01:29:44;56.92;;;17.92;;
57409;SDS011;46044;44.738;20.394;2022-11-20T01:32:17;51.90;;;17.30;;
57409;SDS011;46044;44.738;20.394;2022-11-20T01:34:50;55.40;;;19.07;;
57409;SDS011;46044;44.738;20.394;2022-11-20T01:37:23;51.13;;;17.23;;
57409;SDS011;46044;44.738;20.394;2022-11-20T01:39:56;46.30;;;18.10;;
57409;SDS011;46044;44.738;20.394;2022-11-20T01:42:29;57.27;;;18.53;;
57409;SDS011;46044;44.738;20.394;2022-11-20T01:48:06;57.70;;;18.50;;
57409;SDS011;46044;44.738;20.394;2022-11-20T01:50:43;53.08;;;18.20;;
57409;SDS011;46044;44.738;20.394;2022-11-20T01:53:16;40.80;;;16.90;;
57409;SDS011;46044;44.738;20.394;2022-11-20T01:55:53;46.88;;;18.77;;
57409;SDS011;46044;44.738;20.394;2022-11-20T01:58:30;47.90;;;19.37;;
57409;SDS011;46044;44.738;20.394;2022-11-20T02:01:04;58.45;;;21.92;;
57409;SDS011;46044;44.738;20.394;2022-11-20T02:03:35;50.20;;;19.92;;
57409;SDS011;46044;44.738;20.394;2022-11-20T02:06:16;57.17;;;20.53;;
57409;SDS011;46044;44.738;20.394;2022-11-20T02:08:51;53.70;;;18.50;;
57409;SDS011;46044;44.738;20.394;2022-11-20T02:11:22;51.40;;;20.67;;
57409;SDS011;46044;44.738;20.394;2022-11-20T02:13:56;57.55;;;20.17;;
57409;SDS011;46044;44.738;20.394;2022-11-20T02:19:02;52.97;;;18.55;;
57409;SDS011;46044;44.738;20.394;2022-11-20T02:21:40;50.53;;;20.63;;
57409;SDS011;46044;44.738;20.394;2022-11-20T02:24:18;56.93;;;21.93;;
57409;SDS011;46044;44.738;20.394;2022-11-20T02:29:37;58.00;;;22.83;;
57409;SDS011;46044;44.738;20.394;2022-11-20T02:32:18;78.15;;;27.00;;
57409;SDS011;46044;44.738;20.394;2022-11-20T02:34:51;67.38;;;24.17;;
57409;SDS011;46044;44.738;20.394;2022-11-20T02:37:21;73.97;;;27.47;;
57409;SDS011;46044;44.738;20.394;2022-11-20T02:39:54;68.57;;;26.65;;
57409;SDS011;46044;44.738;20.394;2022-11-20T02:42:29;84.20;;;25.95;;
57409;SDS011;46044;44.738;20.394;2022-11-20T02:45:03;82.68;;;27.10;;
57409;SDS011;46044;44.738;20.394;2022-11-20T02:47:33;89.40;;;27.03;;
57409;SDS011;46044;44.738;20.394;2022-11-20T02:50:04;94.97;;;29.92;;
57409;SDS011;46044;44.738;20.394;2022-11-20T02:52:40;85.65;;;27.42;;
57409;SDS011;46044;44.738;20.394;2022-11-20T02:55:13;98.28;;;26.60;;
57409;SDS011;46044;44.738;20.394;2022-11-20T02:57:43;79.82;;;26.67;;
57409;SDS011;46044;44.738;20.394;2022-11-20T03:00:17;75.85;;;26.58;;
57409;SDS011;46044;44.738;20.394;2022-11-20T03:02:51;97.90;;;27.77;;
57409;SDS011;46044;44.738;20.394;2022-11-20T03:07:51;84.35;;;25.65;;
57409;SDS011;46044;44.738;20.394;2022-11-20T03:13:21;86.50;;;27.02;;
57409;SDS011;46044;44.738;20.394;2022-11-20T03:15:52;82.22;;;26.45;;
57409;SDS011;46044;44.738;20.394;2022-11-20T03:18:27;80.45;;;26.30;;
57409;SDS011;46044;44.738;20.394;2022-11-20T03:21:02;78.82;;;26.15;;
57409;SDS011;46044;44.738;20.394;2022-11-20T03:23:35;78.15;;;24.50;;
57409;SDS011;46044;44.738;20.394;2022-11-20T03:26:15;103.10;;;27.10;;
57409;SDS011;46044;44.738;20.394;2022-11-20T03:28:46;78.47;;;23.95;;
57409;SDS011;46044;44.738;20.394;2022-11-20T03:31:18;79.85;;;24.00;;
57409;SDS011;46044;44.738;20.394;2022-11-20T03:33:55;79.53;;;23.60;;
57409;SDS011;46044;44.738;20.394;2022-11-20T03:36:28;81.70;;;23.95;;
57409;SDS011;46044;44.738;20.394;2022-11-20T03:39:01;75.22;;;23.75;;
57409;SDS011;46044;44.738;20.394;2022-11-20T03:41:40;75.57;;;24.50;;
57409;SDS011;46044;44.738;20.394;2022-11-20T03:44:11;71.25;;;23.00;;
57409;SDS011;46044;44.738;20.394;2022-11-20T03:46:44;80.38;;;23.83;;
57409;SDS011;46044;44.738;20.394;2022-11-20T03:49:17;63.45;;;21.98;;
57409;SDS011;46044;44.738;20.394;2022-11-20T03:51:50;106.03;;;31.70;;
57409;SDS011;46044;44.738;20.394;2022-11-20T03:54:23;85.93;;;31.07;;
57409;SDS011;46044;44.738;20.394;2022-11-20T03:56:56;97.93;;;28.97;;
57409;SDS011;46044;44.738;20.394;2022-11-20T03:59:29;117.47;;;28.83;;
57409;SDS011;46044;44.738;20.394;2022-11-20T04:02:02;77.80;;;25.90;;
57409;SDS011;46044;44.738;20.394;2022-11-20T04:04:35;92.90;;;25.37;;
57409;SDS011;46044;44.738;20.394;2022-11-20T04:07:08;81.55;;;24.98;;
57409;SDS011;46044;44.738;20.394;2022-11-20T04:09:44;98.10;;;26.37;;
57409;SDS011;46044;44.738;20.394;2022-11-20T04:12:17;74.47;;;23.30;;
57409;SDS011;46044;44.738;20.394;2022-11-20T04:14:50;90.35;;;25.65;;
57409;SDS011;46044;44.738;20.394;2022-11-20T04:17:25;78.43;;;23.85;;
57409;SDS011;46044;44.738;20.394;2022-11-20T04:19:58;94.32;;;25.83;;
57409;SDS011;46044;44.738;20.394;2022-11-20T04:22:31;98.20;;;26.63;;
57409;SDS011;46044;44.738;20.394;2022-11-20T04:25:01;98.20;;;25.70;;
57409;SDS011;46044;44.738;20.394;2022-11-20T04:27:34;88.68;;;27.48;;
57409;SDS011;46044;44.738;20.394;2022-11-20T04:30:07;120.30;;;29.65;;
57409;SDS011;46044;44.738;20.394;2022-11-20T04:32:40;98.40;;;26.38;;
57409;SDS011;46044;44.738;20.394;2022-11-20T04:35:13;100.00;;;28.08;;
57409;SDS011;46044;44.738;20.394;2022-11-20T04:37:45;132.90;;;29.63;;
57409;SDS011;46044;44.738;20.394;2022-11-20T04:40:19;140.35;;;30.67;;
57409;SDS011;46044;44.738;20.394;2022-11-20T04:42:49;147.93;;;33.17;;
57409;SDS011;46044;44.738;20.394;2022-11-20T04:45:25;170.80;;;33.50;;
57409;SDS011;46044;44.738;20.394;2022-11-20T04:47:56;141.32;;;31.38;;
57409;SDS011;46044;44.738;20.394;2022-11-20T04:50:29;133.10;;;31.20;;
57409;SDS011;46044;44.738;20.394;2022-11-20T04:53:05;127.60;;;31.80;;
57409;SDS011;46044;44.738;20.394;2022-11-20T04:55:38;163.35;;;34.30;;
57409;SDS011;46044;44.738;20.394;2022-11-20T04:58:08;149.95;;;34.00;;
57409;SDS011;46044;44.738;20.394;2022-11-20T05:00:38;203.27;;;40.05;;
57409;SDS011;46044;44.738;20.394;2022-11-20T05:03:09;179.57;;;36.38;;
57409;SDS011;46044;44.738;20.394;2022-11-20T05:05:39;142.73;;;30.98;;
57409;SDS011;46044;44.738;20.394;2022-11-20T05:08:09;133.18;;;30.48;;
57409;SDS011;46044;44.738;20.394;2022-11-20T05:10:42;174.77;;;34.58;;
57409;SDS011;46044;44.738;20.394;2022-11-20T05:13:13;137.13;;;32.50;;
57409;SDS011;46044;44.738;20.394;2022-11-20T05:15:46;144.90;;;34.30;;
57409;SDS011;46044;44.738;20.394;2022-11-20T05:18:23;149.68;;;34.03;;
57409;SDS011;46044;44.738;20.394;2022-11-20T05:20:58;198.85;;;39.47;;
57409;SDS011;46044;44.738;20.394;2022-11-20T05:23:35;184.57;;;46.70;;
57409;SDS011;46044;44.738;20.394;2022-11-20T05:26:12;212.18;;;40.53;;
57409;SDS011;46044;44.738;20.394;2022-11-20T05:28:49;155.80;;;34.65;;
57409;SDS011;46044;44.738;20.394;2022-11-20T05:31:23;153.68;;;36.17;;
57409;SDS011;46044;44.738;20.394;2022-11-20T05:36:48;183.13;;;37.50;;
57409;SDS011;46044;44.738;20.394;2022-11-20T05:39:23;172.82;;;36.40;;
57409;SDS011;46044;44.738;20.394;2022-11-20T05:41:58;150.38;;;34.92;;
57409;SDS011;46044;44.738;20.394;2022-11-20T05:44:53;156.35;;;37.55;;
57409;SDS011;46044;44.738;20.394;2022-11-20T05:47:33;201.88;;;37.90;;
57409;SDS011;46044;44.738;20.394;2022-11-20T05:50:08;170.90;;;35.90;;
57409;SDS011;46044;44.738;20.394;2022-11-20T05:52:45;151.80;;;36.80;;
57409;SDS011;46044;44.738;20.394;2022-11-20T05:58:05;174.60;;;37.70;;
57409;SDS011;46044;44.738;20.394;2022-11-20T06:06:30;188.45;;;36.63;;
57409;SDS011;46044;44.738;20.394;2022-11-20T06:12:20;175.70;;;36.08;;
57409;SDS011;46044;44.738;20.394;2022-11-20T06:17:52;214.98;;;40.55;;
57409;SDS011;46044;44.738;20.394;2022-11-20T06:22:58;180.13;;;39.45;;
57409;SDS011;46044;44.738;20.394;2022-11-20T06:25:37;172.80;;;36.90;;
57409;SDS011;46044;44.738;20.394;2022-11-20T06:28:12;182.73;;;36.50;;
57409;SDS011;46044;44.738;20.394;2022-11-20T06:30:49;173.52;;;35.63;;
57409;SDS011;46044;44.738;20.394;2022-11-20T06:33:24;199.05;;;36.13;;
57409;SDS011;46044;44.738;20.394;2022-11-20T06:35:58;366.23;;;40.33;;
57409;SDS011;46044;44.738;20.394;2022-11-20T06:38:31;160.45;;;33.83;;
57409;SDS011;46044;44.738;20.394;2022-11-20T06:41:10;180.05;;;35.80;;
57409;SDS011;46044;44.738;20.394;2022-11-20T06:43:43;260.95;;;38.35;;
57409;SDS011;46044;44.738;20.394;2022-11-20T06:46:17;219.43;;;35.95;;
57409;SDS011;46044;44.738;20.394;2022-11-20T06:48:52;182.60;;;35.95;;
57409;SDS011;46044;44.738;20.394;2022-11-20T06:54:11;143.48;;;33.28;;
57409;SDS011;46044;44.738;20.394;2022-11-20T06:56:47;242.60;;;38.90;;
57409;SDS011;46044;44.738;20.394;2022-11-20T06:59:22;130.63;;;31.30;;
57409;SDS011;46044;44.738;20.394;2022-11-20T07:01:55;235.25;;;37.50;;
57409;SDS011;46044;44.738;20.394;2022-11-20T07:07:18;146.75;;;34.28;;
57409;SDS011;46044;44.738;20.394;2022-11-20T07:09:51;130.10;;;31.85;;
57409;SDS011;46044;44.738;20.394;2022-11-20T07:12:28;188.63;;;35.87;;
57409;SDS011;46044;44.738;20.394;2022-11-20T07:15:01;183.93;;;34.75;;
57409;SDS011;46044;44.738;20.394;2022-11-20T07:17:34;251.93;;;45.23;;
57409;SDS011;46044;44.738;20.394;2022-11-20T07:20:09;146.55;;;32.42;;
57409;SDS011;46044;44.738;20.394;2022-11-20T07:22:43;288.38;;;49.20;;
57409;SDS011;46044;44.738;20.394;2022-11-20T07:25:16;203.07;;;44.45;;
57409;SDS011;46044;44.738;20.394;2022-11-20T07:27:49;187.40;;;46.70;;
57409;SDS011;46044;44.738;20.394;2022-11-20T07:30:22;178.05;;;42.03;;
57409;SDS011;46044;44.738;20.394;2022-11-20T07:32:59;150.50;;;36.30;;
57409;SDS011;46044;44.738;20.394;2022-11-20T07:35:33;151.00;;;41.20;;
57409;SDS011;46044;44.738;20.394;2022-11-20T07:38:07;138.40;;;35.22;;
57409;SDS011;46044;44.738;20.394;2022-11-20T07:40:40;206.30;;;36.72;;
57409;SDS011;46044;44.738;20.394;2022-11-20T07:43:17;149.65;;;35.58;;
57409;SDS011;46044;44.738;20.394;2022-11-20T07:45:50;160.70;;;35.95;;
57409;SDS011;46044;44.738;20.394;2022-11-20T07:48:25;134.55;;;33.45;;
57409;SDS011;46044;44.738;20.394;2022-11-20T07:50:59;191.90;;;51.15;;
57409;SDS011;46044;44.738;20.394;2022-11-20T07:56:07;115.70;;;28.35;;
57409;SDS011;46044;44.738;20.394;2022-11-20T07:58:41;169.63;;;35.00;;
57409;SDS011;46044;44.738;20.394;2022-11-20T08:01:15;254.40;;;76.07;;
57409;SDS011;46044;44.738;20.394;2022-11-20T08:12:04;332.00;;;74.25;;
57409;SDS011;46044;44.738;20.394;2022-11-20T08:14:57;102.18;;;30.65;;
57409;SDS011;46044;44.738;20.394;2022-11-20T08:23:27;121.32;;;48.72;;
57409;SDS011;46044;44.738;20.394;2022-11-20T08:37:40;66.75;;;24.55;;
57409;SDS011;46044;44.738;20.394;2022-11-20T08:40:15;58.83;;;21.55;;
57409;SDS011;46044;44.738;20.394;2022-11-20T08:42:49;55.65;;;18.83;;
57409;SDS011;46044;44.738;20.394;2022-11-20T08:45:21;69.22;;;21.45;;
57409;SDS011;46044;44.738;20.394;2022-11-20T08:50:59;69.65;;;22.42;;
57409;SDS011;46044;44.738;20.394;2022-11-20T08:53:32;83.80;;;23.90;;
57409;SDS011;46044;44.738;20.394;2022-11-20T08:56:05;97.77;;;34.83;;
57409;SDS011;46044;44.738;20.394;2022-11-20T08:58:40;97.30;;;26.60;;
57409;SDS011;46044;44.738;20.394;2022-11-20T09:01:18;80.70;;;23.75;;
57409;SDS011;46044;44.738;20.394;2022-11-20T09:03:50;70.40;;;22.35;;
57409;SDS011;46044;44.738;20.394;2022-11-20T09:06:24;80.97;;;24.60;;
57409;SDS011;46044;44.738;20.394;2022-11-20T09:15:29;72.57;;;22.92;;
57409;SDS011;46044;44.738;20.394;2022-11-20T09:21:06;64.80;;;20.07;;
57409;SDS011;46044;44.738;20.394;2022-11-20T09:23:39;100.95;;;24.05;;
57409;SDS011;46044;44.738;20.394;2022-11-20T09:26:13;108.97;;;25.10;;
57409;SDS011;46044;44.738;20.394;2022-11-20T09:34:32;382.98;;;66.38;;
57409;SDS011;46044;44.738;20.394;2022-11-20T09:40:05;137.57;;;31.88;;
57409;SDS011;46044;44.738;20.394;2022-11-20T09:45:30;106.47;;;26.37;;
57409;SDS011;46044;44.738;20.394;2022-11-20T09:50:57;130.75;;;32.70;;
57409;SDS011;46044;44.738;20.394;2022-11-20T09:56:13;116.60;;;24.80;;
57409;SDS011;46044;44.738;20.394;2022-11-20T09:58:50;93.45;;;23.30;;
57409;SDS011;46044;44.738;20.394;2022-11-20T10:01:32;99.88;;;25.10;;
57409;SDS011;46044;44.738;20.394;2022-11-20T10:04:13;115.47;;;26.02;;
57409;SDS011;46044;44.738;20.394;2022-11-20T10:07:05;116.85;;;26.27;;
57409;SDS011;46044;44.738;20.394;2022-11-20T10:09:40;122.22;;;29.08;;
57409;SDS011;46044;44.738;20.394;2022-11-20T10:32:35;154.33;;;31.07;;
57409;SDS011;46044;44.738;20.394;2022-11-20T10:40:59;117.97;;;30.05;;
57409;SDS011;46044;44.738;20.394;2022-11-20T10:52:56;132.05;;;34.15;;
57409;SDS011;46044;44.738;20.394;2022-11-20T10:55:47;184.40;;;38.70;;
57409;SDS011;46044;44.738;20.394;2022-11-20T11:01:20;156.75;;;36.50;;
57409;SDS011;46044;44.738;20.394;2022-11-20T11:03:58;126.20;;;31.20;;
57409;SDS011;46044;44.738;20.394;2022-11-20T11:10:15;149.87;;;30.00;;
57409;SDS011;46044;44.738;20.394;2022-11-20T11:12:51;123.70;;;29.10;;
57409;SDS011;46044;44.738;20.394;2022-11-20T11:15:26;134.23;;;30.55;;
57409;SDS011;46044;44.738;20.394;2022-11-20T11:17:59;120.07;;;31.43;;
57409;SDS011;46044;44.738;20.394;2022-11-20T11:23:34;107.55;;;31.05;;
57409;SDS011;46044;44.738;20.394;2022-11-20T11:34:37;100.10;;;27.70;;
57409;SDS011;46044;44.738;20.394;2022-11-20T11:37:19;94.10;;;25.03;;
57409;SDS011;46044;44.738;20.394;2022-11-20T11:39:50;91.63;;;25.23;;
57409;SDS011;46044;44.738;20.394;2022-11-20T11:42:28;103.20;;;25.80;;
57409;SDS011;46044;44.738;20.394;2022-11-20T12:03:24;117.05;;;32.17;;
57409;SDS011;46044;44.738;20.394;2022-11-20T12:11:55;126.13;;;29.55;;
57409;SDS011;46044;44.738;20.394;2022-11-20T12:20:35;121.80;;;27.93;;
57409;SDS011;46044;44.738;20.394;2022-11-20T12:23:17;111.63;;;29.05;;
57409;SDS011;46044;44.738;20.394;2022-11-20T12:25:52;96.03;;;29.02;;
57409;SDS011;46044;44.738;20.394;2022-11-20T13:07:18;143.30;;;37.40;;
57409;SDS011;46044;44.738;20.394;2022-11-20T13:13:00;245.37;;;56.53;;
57409;SDS011;46044;44.738;20.394;2022-11-20T13:29:46;193.55;;;60.55;;
57409;SDS011;46044;44.738;20.394;2022-11-20T13:40:50;329.85;;;91.15;;
57409;SDS011;46044;44.738;20.394;2022-11-20T13:43:37;187.95;;;43.90;;
57409;SDS011;46044;44.738;20.394;2022-11-20T14:28:43;123.40;;;36.35;;
57409;SDS011;46044;44.738;20.394;2022-11-20T14:31:23;137.00;;;36.25;;
57409;SDS011;46044;44.738;20.394;2022-11-20T14:49:11;144.40;;;35.50;;
57409;SDS011;46044;44.738;20.394;2022-11-20T14:57:53;148.07;;;37.75;;
57409;SDS011;46044;44.738;20.394;2022-11-20T15:00:27;136.77;;;36.20;;
57409;SDS011;46044;44.738;20.394;2022-11-20T15:03:02;131.20;;;41.95;;
57409;SDS011;46044;44.738;20.394;2022-11-20T15:05:48;133.70;;;36.50;;
57409;SDS011;46044;44.738;20.394;2022-11-20T15:08:22;121.97;;;34.17;;
57409;SDS011;46044;44.738;20.394;2022-11-20T15:10:58;144.60;;;39.00;;
57409;SDS011;46044;44.738;20.394;2022-11-20T15:13:37;107.67;;;33.93;;
57409;SDS011;46044;44.738;20.394;2022-11-20T15:16:18;128.60;;;32.92;;
57409;SDS011;46044;44.738;20.394;2022-11-20T15:18:51;110.93;;;31.13;;
57409;SDS011;46044;44.738;20.394;2022-11-20T15:21:24;114.50;;;31.95;;
57409;SDS011;46044;44.738;20.394;2022-11-20T15:26:57;137.63;;;32.80;;
57409;SDS011;46044;44.738;20.394;2022-11-20T15:29:32;127.65;;;32.53;;
57409;SDS011;46044;44.738;20.394;2022-11-20T15:35:08;123.75;;;33.00;;
57409;SDS011;46044;44.738;20.394;2022-11-20T15:40:58;100.32;;;30.95;;
57409;SDS011;46044;44.738;20.394;2022-11-20T15:49:28;116.55;;;32.40;;
57409;SDS011;46044;44.738;20.394;2022-11-20T15:52:01;114.38;;;29.98;;
57409;SDS011;46044;44.738;20.394;2022-11-20T15:54:38;93.45;;;29.33;;
57409;SDS011;46044;44.738;20.394;2022-11-20T15:57:11;98.15;;;28.60;;
57409;SDS011;46044;44.738;20.394;2022-11-20T16:02:48;129.60;;;40.87;;
57409;SDS011;46044;44.738;20.394;2022-11-20T16:05:31;133.00;;;40.70;;
57409;SDS011;46044;44.738;20.394;2022-11-20T16:14:13;208.45;;;78.05;;
57409;SDS011;46044;44.738;20.394;2022-11-20T16:20:09;262.55;;;111.22;;
57409;SDS011;46044;44.738;20.394;2022-11-20T16:22:43;349.45;;;179.50;;
57409;SDS011;46044;44.738;20.394;2022-11-20T16:25:20;210.45;;;86.80;;
57409;SDS011;46044;44.738;20.394;2022-11-20T16:27:53;227.10;;;88.13;;
57409;SDS011;46044;44.738;20.394;2022-11-20T16:30:31;186.27;;;61.73;;
57409;SDS011;46044;44.738;20.394;2022-11-20T16:33:04;150.63;;;47.53;;
57409;SDS011;46044;44.738;20.394;2022-11-20T16:35:41;151.70;;;50.10;;
57409;SDS011;46044;44.738;20.394;2022-11-20T16:38:14;163.80;;;50.20;;
57409;SDS011;46044;44.738;20.394;2022-11-20T16:40:47;194.50;;;50.60;;
57409;SDS011;46044;44.738;20.394;2022-11-20T16:43:20;193.10;;;56.95;;
57409;SDS011;46044;44.738;20.394;2022-11-20T16:45:53;185.07;;;46.10;;
57409;SDS011;46044;44.738;20.394;2022-11-20T16:48:30;220.70;;;63.35;;
57409;SDS011;46044;44.738;20.394;2022-11-20T16:51:03;225.83;;;55.43;;
57409;SDS011;46044;44.738;20.394;2022-11-20T16:53:43;240.90;;;65.53;;
57409;SDS011;46044;44.738;20.394;2022-11-20T16:59:02;274.80;;;58.85;;
57409;SDS011;46044;44.738;20.394;2022-11-20T17:01:37;310.10;;;64.38;;
57409;SDS011;46044;44.738;20.394;2022-11-20T17:04:14;279.23;;;60.87;;
57409;SDS011;46044;44.738;20.394;2022-11-20T17:06:50;265.50;;;70.00;;
57409;SDS011;46044;44.738;20.394;2022-11-20T17:09:23;277.60;;;64.17;;
57409;SDS011;46044;44.738;20.394;2022-11-20T17:11:56;254.35;;;57.90;;
57409;SDS011;46044;44.738;20.394;2022-11-20T17:14:33;392.10;;;94.70;;
57409;SDS011;46044;44.738;20.394;2022-11-20T17:17:06;298.70;;;68.40;;
57409;SDS011;46044;44.738;20.394;2022-11-20T17:25:38;297.08;;;55.60;;
57409;SDS011;46044;44.738;20.394;2022-11-20T17:28:11;255.15;;;55.28;;
57409;SDS011;46044;44.738;20.394;2022-11-20T17:30:44;244.45;;;58.70;;
57409;SDS011;46044;44.738;20.394;2022-11-20T17:33:21;245.18;;;62.15;;
57409;SDS011;46044;44.738;20.394;2022-11-20T17:35:54;254.40;;;57.85;;
57409;SDS011;46044;44.738;20.394;2022-11-20T17:44:33;214.90;;;48.85;;
57409;SDS011;46044;44.738;20.394;2022-11-20T17:47:10;298.63;;;55.73;;
57409;SDS011;46044;44.738;20.394;2022-11-20T17:49:44;369.98;;;70.30;;
57409;SDS011;46044;44.738;20.394;2022-11-20T18:19:33;331.80;;;65.40;;
57409;SDS011;46044;44.738;20.394;2022-11-20T18:28:18;286.83;;;61.65;;
57409;SDS011;46044;44.738;20.394;2022-11-20T18:30:52;274.88;;;57.30;;
57409;SDS011;46044;44.738;20.394;2022-11-20T18:33:27;336.88;;;67.90;;
57409;SDS011;46044;44.738;20.394;2022-11-20T18:36:15;289.60;;;64.03;;
57409;SDS011;46044;44.738;20.394;2022-11-20T18:38:50;233.85;;;51.80;;
57409;SDS011;46044;44.738;20.394;2022-11-20T18:47:30;267.23;;;53.17;;
57409;SDS011;46044;44.738;20.394;2022-11-20T18:50:06;224.00;;;47.45;;
57409;SDS011;46044;44.738;20.394;2022-11-20T18:55:40;221.93;;;46.40;;
57409;SDS011;46044;44.738;20.394;2022-11-20T19:06:45;307.65;;;62.63;;
57409;SDS011;46044;44.738;20.394;2022-11-20T19:09:27;230.07;;;48.42;;
57409;SDS011;46044;44.738;20.394;2022-11-20T19:12:00;281.55;;;51.72;;
57409;SDS011;46044;44.738;20.394;2022-11-20T19:14:33;285.95;;;49.58;;
57409;SDS011;46044;44.738;20.394;2022-11-20T19:17:06;292.00;;;49.80;;
57409;SDS011;46044;44.738;20.394;2022-11-20T19:22:25;245.30;;;49.60;;
57409;SDS011;46044;44.738;20.394;2022-11-20T19:30:32;245.50;;;47.60;;
57409;SDS011;46044;44.738;20.394;2022-11-20T19:41:38;209.55;;;42.58;;
57409;SDS011;46044;44.738;20.394;2022-11-20T19:44:12;176.40;;;42.05;;
57409;SDS011;46044;44.738;20.394;2022-11-20T19:46:46;209.73;;;44.90;;
57409;SDS011;46044;44.738;20.394;2022-11-20T19:49:20;248.32;;;45.33;;
57409;SDS011;46044;44.738;20.394;2022-11-20T20:06:17;240.75;;;45.85;;
57409;SDS011;46044;44.738;20.394;2022-11-20T20:11:37;190.40;;;42.40;;
57409;SDS011;46044;44.738;20.394;2022-11-20T20:16:57;261.55;;;51.85;;
57409;SDS011;46044;44.738;20.394;2022-11-20T20:22:19;228.43;;;51.58;;
57409;SDS011;46044;44.738;20.394;2022-11-20T20:24:55;265.38;;;51.65;;
57409;SDS011;46044;44.738;20.394;2022-11-20T20:27:31;219.40;;;50.80;;
57409;SDS011;46044;44.738;20.394;2022-11-20T20:30:10;227.88;;;49.28;;
57409;SDS011;46044;44.738;20.394;2022-11-20T20:32:46;204.60;;;47.20;;
57409;SDS011;46044;44.738;20.394;2022-11-20T20:35:21;250.05;;;52.90;;
57409;SDS011;46044;44.738;20.394;2022-11-20T20:37:56;229.20;;;50.73;;
57409;SDS011;46044;44.738;20.394;2022-11-20T20:43:15;205.30;;;42.17;;
57409;SDS011;46044;44.738;20.394;2022-11-20T20:45:52;191.73;;;42.38;;
57409;SDS011;46044;44.738;20.394;2022-11-20T20:48:28;192.07;;;42.47;;
57409;SDS011;46044;44.738;20.394;2022-11-20T20:51:01;199.50;;;43.25;;
57409;SDS011;46044;44.738;20.394;2022-11-20T20:53:35;184.43;;;40.55;;
57409;SDS011;46044;44.738;20.394;2022-11-20T20:58:54;177.10;;;38.00;;
57409;SDS011;46044;44.738;20.394;2022-11-20T21:01:31;207.27;;;40.95;;
57409;SDS011;46044;44.738;20.394;2022-11-20T21:07:00;197.60;;;43.15;;
57409;SDS011;46044;44.738;20.394;2022-11-20T21:09:33;150.48;;;39.13;;
57409;SDS011;46044;44.738;20.394;2022-11-20T21:12:09;183.53;;;41.87;;
57409;SDS011;46044;44.738;20.394;2022-11-20T21:14:43;159.15;;;37.50;;
57409;SDS011;46044;44.738;20.394;2022-11-20T21:17:19;186.87;;;38.53;;
57409;SDS011;46044;44.738;20.394;2022-11-20T21:25:41;179.75;;;36.60;;
57409;SDS011;46044;44.738;20.394;2022-11-20T21:31:21;188.10;;;40.23;;
57409;SDS011;46044;44.738;20.394;2022-11-20T21:34:00;186.93;;;43.65;;
57409;SDS011;46044;44.738;20.394;2022-11-20T21:36:33;165.43;;;39.67;;
57409;SDS011;46044;44.738;20.394;2022-11-20T21:47:54;212.02;;;41.83;;
57409;SDS011;46044;44.738;20.394;2022-11-20T21:50:28;168.10;;;41.27;;
57409;SDS011;46044;44.738;20.394;2022-11-20T21:53:03;180.60;;;42.65;;
57409;SDS011;46044;44.738;20.394;2022-11-20T21:55:36;224.80;;;43.77;;
57409;SDS011;46044;44.738;20.394;2022-11-20T21:58:10;181.77;;;40.97;;
57409;SDS011;46044;44.738;20.394;2022-11-20T22:00:48;221.77;;;44.55;;
57409;SDS011;46044;44.738;20.394;2022-11-20T22:06:09;216.52;;;43.10;;
57409;SDS011;46044;44.738;20.394;2022-11-20T22:08:45;228.10;;;41.95;;
57409;SDS011;46044;44.738;20.394;2022-11-20T22:16:55;234.95;;;45.80;;
57409;SDS011;46044;44.738;20.394;2022-11-20T22:19:28;216.47;;;44.37;;
57409;SDS011;46044;44.738;20.394;2022-11-20T22:22:06;250.70;;;44.00;;
57409;SDS011;46044;44.738;20.394;2022-11-20T22:24:41;225.23;;;42.13;;
57409;SDS011;46044;44.738;20.394;2022-11-20T22:30:17;253.07;;;44.63;;
57409;SDS011;46044;44.738;20.394;2022-11-20T22:32:50;201.52;;;45.20;;
57409;SDS011;46044;44.738;20.394;2022-11-20T22:35:31;234.85;;;46.30;;
57409;SDS011;46044;44.738;20.394;2022-11-20T22:38:04;263.57;;;47.87;;
57409;SDS011;46044;44.738;20.394;2022-11-20T22:40:38;234.10;;;45.93;;
57409;SDS011;46044;44.738;20.394;2022-11-20T22:46:19;264.75;;;45.90;;
57409;SDS011;46044;44.738;20.394;2022-11-20T22:48:57;224.73;;;44.47;;
57409;SDS011;46044;44.738;20.394;2022-11-20T22:51:31;255.80;;;45.93;;
57409;SDS011;46044;44.738;20.394;2022-11-20T22:54:04;256.42;;;45.85;;
57409;SDS011;46044;44.738;20.394;2022-11-20T22:56:37;279.08;;;45.85;;
57409;SDS011;46044;44.738;20.394;2022-11-20T23:02:09;252.30;;;44.30;;
57409;SDS011;46044;44.738;20.394;2022-11-20T23:04:46;217.18;;;43.10;;
57409;SDS011;46044;44.738;20.394;2022-11-20T23:10:06;271.80;;;45.70;;
57409;SDS011;46044;44.738;20.394;2022-11-20T23:15:29;238.82;;;45.35;;
57409;SDS011;46044;44.738;20.394;2022-11-20T23:20:50;287.90;;;49.30;;
57409;SDS011;46044;44.738;20.394;2022-11-20T23:23:23;306.02;;;51.10;;